Time;durP1;ratioP1;P1;durP2;ratioP2;P2;SDS_P1;SDS_P2;PMS_P1;PMS_P2;Temp;Humidity;BMP_temperature;BMP_pressure;BME280_temperature;BME280_humidity;BME280_pressure;Samples;Min_cycle;Max_cycle;Signal;HPM_P1;HPM_P2
2022/05/01 00:01:02;;;;;;;;;9.75;8.50;;;;;;;;5087453;27;45655;-66
2022/05/01 00:03:31;;;;;;;;;7.75;7.75;;;;;;;;5087966;27;45981;-66
2022/05/01 00:05:58;;;;;;;;;9.50;8.25;;;;;;;;5083953;27;46440;-66
2022/05/01 00:08:23;;;;;;;;;6.75;6.50;;;;;;;;5086652;27;45538;-65
2022/05/01 00:10:48;;;;;;;;;10.50;10.50;;;;;;;;5091175;27;45384;-66
2022/05/01 00:13:15;;;;;;;;;8.25;8.25;;;;;;;;5072560;27;45484;-66
2022/05/01 00:15:40;;;;;;;;;11.25;10.25;;;;;;;;5083490;27;46646;-67
2022/05/01 00:18:05;;;;;;;;;10.00;9.75;;;;;;;;5064886;28;45724;-66
2022/05/01 00:20:30;;;;;;;;;7.75;5.75;;;;;;;;5069223;28;45541;-66
2022/05/01 00:22:56;;;;;;;;;13.00;12.00;;;;;;;;5081780;27;45313;-67
2022/05/01 00:25:21;;;;;;;;;8.00;8.00;;;;;;;;5089090;27;45639;-66
2022/05/01 00:27:47;;;;;;;;;9.75;9.25;;;;;;;;5080933;27;45501;-66
2022/05/01 00:30:13;;;;;;;;;10.25;10.25;;;;;;;;5086902;27;45639;-66
2022/05/01 00:38:06;;;;;;;;;7.25;6.75;;;;;;;;5081679;27;45294;-66
2022/05/01 00:40:32;;;;;;;;;10.50;10.25;;;;;;;;5095112;27;45465;-65
2022/05/01 00:43:01;;;;;;;;;9.75;8.50;;;;;;;;5075976;27;45799;-66
2022/05/01 00:45:26;;;;;;;;;9.75;9.75;;;;;;;;5090059;27;46512;-66
2022/05/01 00:47:51;;;;;;;;;9.00;9.00;;;;;;;;5091667;27;44799;-66
2022/05/01 00:50:17;;;;;;;;;8.00;8.00;;;;;;;;5086721;27;45434;-66
2022/05/01 00:52:42;;;;;;;;;7.00;7.00;;;;;;;;5086512;27;47929;-66
2022/05/01 00:55:08;;;;;;;;;9.50;8.00;;;;;;;;5092976;27;46641;-65
2022/05/01 00:57:33;;;;;;;;;14.00;10.75;;;;;;;;5094119;27;45390;-66
2022/05/01 00:59:58;;;;;;;;;13.50;10.25;;;;;;;;5068800;27;45435;-66
2022/05/01 01:02:24;;;;;;;;;10.25;7.75;;;;;;;;5090705;27;45574;-67
2022/05/01 01:04:49;;;;;;;;;9.75;9.25;;;;;;;;5082409;27;47221;-66
2022/05/01 01:07:15;;;;;;;;;12.00;10.00;;;;;;;;5085600;27;45352;-65
2022/05/01 01:09:40;;;;;;;;;15.25;12.25;;;;;;;;5090639;27;45427;-66
2022/05/01 01:15:03;;;;;;;;;15.00;11.75;;;;;;;;5094709;27;45347;-67
2022/05/01 01:17:28;;;;;;;;;9.75;8.50;;;;;;;;5071140;27;45602;-66
2022/05/01 01:19:54;;;;;;;;;11.75;11.75;;;;;;;;5087228;27;45417;-66
2022/05/01 01:22:20;;;;;;;;;12.25;9.25;;;;;;;;5086360;27;45534;-66
2022/05/01 01:24:45;;;;;;;;;11.00;9.50;;;;;;;;5076112;27;48682;-66
2022/05/01 01:27:13;;;;;;;;;13.00;10.00;;;;;;;;5090085;27;45369;-67
2022/05/01 01:32:24;;;;;;;;;10.25;9.00;;;;;;;;5090997;27;47921;-64
2022/05/01 01:34:50;;;;;;;;;13.75;12.00;;;;;;;;5090722;27;46687;-66
2022/05/01 01:37:16;;;;;;;;;11.00;10.00;;;;;;;;5093972;27;45388;-66
2022/05/01 01:39:42;;;;;;;;;14.25;11.00;;;;;;;;5079416;27;45564;-65
2022/05/01 01:42:09;;;;;;;;;12.50;10.00;;;;;;;;5082485;27;45450;-65
2022/05/01 01:44:38;;;;;;;;;12.75;11.25;;;;;;;;5084757;27;46125;-66
2022/05/01 01:47:04;;;;;;;;;13.50;11.50;;;;;;;;5067744;27;45707;-66
2022/05/01 01:49:30;;;;;;;;;12.75;10.00;;;;;;;;5067387;27;45539;-67
2022/05/01 01:51:55;;;;;;;;;12.50;11.50;;;;;;;;5088462;27;45388;-67
2022/05/01 01:54:20;;;;;;;;;16.25;14.25;;;;;;;;5093409;27;45387;-65
2022/05/01 01:56:45;;;;;;;;;11.75;11.75;;;;;;;;5094710;27;45610;-66
2022/05/01 01:59:11;;;;;;;;;13.50;12.25;;;;;;;;5089023;27;45412;-66
2022/05/01 02:01:37;;;;;;;;;11.50;11.50;;;;;;;;5073845;27;45495;-66
2022/05/01 02:04:02;;;;;;;;;12.75;11.75;;;;;;;;5092542;27;46006;-66
2022/05/01 02:06:28;;;;;;;;;15.00;15.00;;;;;;;;5069575;28;45389;-66
2022/05/01 02:08:53;;;;;;;;;15.25;14.25;;;;;;;;5064745;28;45449;-65
2022/05/01 02:11:18;;;;;;;;;12.75;11.25;;;;;;;;5081493;27;45478;-66
2022/05/01 02:13:43;;;;;;;;;16.25;13.00;;;;;;;;5080228;27;46318;-66
2022/05/01 02:16:09;;;;;;;;;14.00;12.50;;;;;;;;5079566;27;45911;-65
2022/05/01 02:18:34;;;;;;;;;13.50;13.50;;;;;;;;5074208;27;45431;-66
2022/05/01 02:23:43;;;;;;;;;18.50;14.00;;;;;;;;5077705;27;45535;-67
2022/05/01 02:26:08;;;;;;;;;13.25;11.00;;;;;;;;5086141;27;45516;-66
2022/05/01 02:28:33;;;;;;;;;13.25;13.25;;;;;;;;5076810;27;45454;-65
2022/05/01 02:30:59;;;;;;;;;13.75;12.75;;;;;;;;5069807;27;45671;-65
2022/05/01 02:33:25;;;;;;;;;14.75;14.25;;;;;;;;5075158;28;48480;-66
2022/05/01 02:35:50;;;;;;;;;12.50;12.50;;;;;;;;5083140;27;45514;-66
2022/05/01 02:38:16;;;;;;;;;14.50;13.25;;;;;;;;5076663;27;45628;-66
2022/05/01 02:40:42;;;;;;;;;15.50;15.50;;;;;;;;5083042;27;45468;-66
2022/05/01 02:43:08;;;;;;;;;17.00;14.75;;;;;;;;5079837;27;47575;-65
2022/05/01 02:45:33;;;;;;;;;12.00;12.00;;;;;;;;5073739;27;45377;-66
2022/05/01 02:47:59;;;;;;;;;15.25;13.00;;;;;;;;5077215;27;45461;-65
2022/05/01 02:50:25;;;;;;;;;13.50;13.50;;;;;;;;5083124;27;45486;-66
2022/05/01 02:52:52;;;;;;;;;13.00;11.75;;;;;;;;5072946;27;45848;-66
2022/05/01 02:55:19;;;;;;;;;11.50;11.50;;;;;;;;5080637;27;45369;-65
2022/05/01 02:57:44;;;;;;;;;14.25;13.25;;;;;;;;5078105;27;45955;-66
2022/05/01 03:00:16;;;;;;;;;15.00;13.75;;;;;;;;5081067;27;45577;-65
2022/05/01 03:02:42;;;;;;;;;13.75;13.25;;;;;;;;5082732;27;46567;-65
2022/05/01 03:05:07;;;;;;;;;16.50;13.25;;;;;;;;5082691;27;45478;-66
2022/05/01 03:07:32;;;;;;;;;13.50;13.25;;;;;;;;5083002;27;45588;-67
2022/05/01 03:09:57;;;;;;;;;16.75;16.50;;;;;;;;5075850;27;45297;-65
2022/05/01 03:12:24;;;;;;;;;15.00;15.00;;;;;;;;5087348;27;45645;-66
2022/05/01 03:14:50;;;;;;;;;18.75;18.75;;;;;;;;5083246;27;45516;-66
2022/05/01 03:17:15;;;;;;;;;18.00;14.75;;;;;;;;5082637;27;45467;-66
2022/05/01 03:22:24;;;;;;;;;17.00;13.50;;;;;;;;5081582;27;45419;-66
2022/05/01 03:24:50;;;;;;;;;14.25;12.75;;;;;;;;5077609;27;45350;-66
2022/05/01 03:27:16;;;;;;;;;18.75;18.50;;;;;;;;5080180;27;45615;-66
2022/05/01 03:29:41;;;;;;;;;16.50;13.75;;;;;;;;5082487;27;45425;-66
2022/05/01 03:32:07;;;;;;;;;13.00;11.25;;;;;;;;5082463;27;46610;-65
2022/05/01 03:34:32;;;;;;;;;16.75;16.25;;;;;;;;5082454;27;45439;-66
2022/05/01 03:36:58;;;;;;;;;17.00;13.75;;;;;;;;5077953;27;45421;-66
2022/05/01 03:39:23;;;;;;;;;16.25;15.50;;;;;;;;5078989;27;45309;-66
2022/05/01 03:41:48;;;;;;;;;15.75;14.75;;;;;;;;5082130;27;45725;-66
2022/05/01 03:44:13;;;;;;;;;17.00;14.50;;;;;;;;5082069;27;45522;-66
2022/05/01 03:46:39;;;;;;;;;16.00;15.00;;;;;;;;5082220;27;45429;-66
2022/05/01 03:49:09;;;;;;;;;16.75;14.25;;;;;;;;5075957;27;45404;-66
2022/05/01 03:51:34;;;;;;;;;16.75;15.50;;;;;;;;5088940;27;46657;-66
2022/05/01 03:54:02;;;;;;;;;19.50;16.50;;;;;;;;5085372;27;45519;-66
2022/05/01 03:56:30;;;;;;;;;14.25;14.25;;;;;;;;5085743;27;45465;-66
2022/05/01 03:58:56;;;;;;;;;16.50;15.25;;;;;;;;5085694;27;45469;-66
2022/05/01 04:01:21;;;;;;;;;26.00;20.50;;;;;;;;5083911;27;47484;-66
2022/05/01 04:03:46;;;;;;;;;17.25;15.25;;;;;;;;5080604;27;45412;-66
2022/05/01 04:06:12;;;;;;;;;22.25;20.50;;;;;;;;5083653;27;45378;-65
2022/05/01 04:08:37;;;;;;;;;19.00;16.50;;;;;;;;5085495;27;45494;-65
2022/05/01 04:11:03;;;;;;;;;15.00;14.50;;;;;;;;5088138;27;46589;-65
2022/05/01 04:13:28;;;;;;;;;15.75;15.00;;;;;;;;5084929;27;45502;-65
2022/05/01 04:15:54;;;;;;;;;13.00;13.00;;;;;;;;5080435;27;45354;-66
2022/05/01 04:18:21;;;;;;;;;19.75;18.75;;;;;;;;5082330;27;45329;-66
2022/05/01 04:20:46;;;;;;;;;20.50;20.50;;;;;;;;5085051;27;47458;-66
2022/05/01 04:23:11;;;;;;;;;25.25;19.75;;;;;;;;5085027;27;45369;-65
2022/05/01 04:25:37;;;;;;;;;17.50;16.75;;;;;;;;5085124;27;45506;-67
2022/05/01 04:28:03;;;;;;;;;22.00;20.25;;;;;;;;5078394;27;45290;-65
2022/05/01 04:30:31;;;;;;;;;17.50;15.25;;;;;;;;5088848;27;45195;-66
2022/05/01 04:33:06;;;;;;;;;15.50;14.50;;;;;;;;5084658;27;45543;-66
2022/05/01 04:35:33;;;;;;;;;23.25;17.50;;;;;;;;5057668;28;45450;-66
2022/05/01 04:38:00;;;;;;;;;20.75;17.50;;;;;;;;5084893;27;45396;-65
2022/05/01 04:40:26;;;;;;;;;17.00;15.00;;;;;;;;5083983;27;46369;-66
2022/05/01 04:42:52;;;;;;;;;16.25;14.50;;;;;;;;5079783;27;45400;-66
2022/05/01 04:45:19;;;;;;;;;18.00;18.00;;;;;;;;5081936;27;45867;-66
2022/05/01 04:47:45;;;;;;;;;22.25;19.00;;;;;;;;5064935;28;45467;-67
2022/05/01 04:50:11;;;;;;;;;23.00;19.25;;;;;;;;5083717;27;45829;-65
2022/05/01 04:52:37;;;;;;;;;23.50;21.25;;;;;;;;5084679;27;45413;-65
2022/05/01 04:55:02;;;;;;;;;14.00;14.00;;;;;;;;5081360;27;45494;-65
2022/05/01 04:57:27;;;;;;;;;24.00;20.50;;;;;;;;5062526;28;45348;-66
2022/05/01 04:59:53;;;;;;;;;11.00;8.75;;;;;;;;5078610;27;45774;-64
2022/05/01 05:02:18;;;;;;;;;19.50;19.25;;;;;;;;5083738;27;45660;-64
2022/05/01 05:04:44;;;;;;;;;18.25;17.25;;;;;;;;5084400;27;45644;-65
2022/05/01 05:07:10;;;;;;;;;23.25;19.25;;;;;;;;5078899;27;45359;-65
2022/05/01 05:09:54;;;;;;;;;14.25;14.00;;;;;;;;5087691;27;45870;-66
2022/05/01 05:12:19;;;;;;;;;16.50;14.00;;;;;;;;5080476;27;45379;-66
2022/05/01 05:14:47;;;;;;;;;16.25;16.00;;;;;;;;5084346;27;45277;-65
2022/05/01 05:17:12;;;;;;;;;16.75;11.75;;;;;;;;5084504;27;45448;-64
2022/05/01 05:19:39;;;;;;;;;18.75;14.25;;;;;;;;5084125;27;46318;-65
2022/05/01 05:22:04;;;;;;;;;17.25;15.50;;;;;;;;5080589;27;45381;-66
2022/05/01 05:24:30;;;;;;;;;15.00;14.00;;;;;;;;5079596;27;45427;-66
2022/05/01 05:26:55;;;;;;;;;16.25;15.00;;;;;;;;5080949;27;45568;-66
2022/05/01 05:29:20;;;;;;;;;21.00;15.25;;;;;;;;5073747;27;45577;-66
2022/05/01 05:31:46;;;;;;;;;19.00;17.75;;;;;;;;5083974;27;45494;-66
2022/05/01 05:34:11;;;;;;;;;15.50;15.25;;;;;;;;5078742;27;45440;-66
2022/05/01 05:36:36;;;;;;;;;19.50;17.75;;;;;;;;5087581;27;45527;-66
2022/05/01 05:39:01;;;;;;;;;18.00;14.00;;;;;;;;5083285;27;45349;-65
2022/05/01 05:41:27;;;;;;;;;16.25;15.75;;;;;;;;5070274;27;45507;-65
2022/05/01 05:43:52;;;;;;;;;19.50;16.25;;;;;;;;5092203;27;45423;-67
2022/05/01 05:46:17;;;;;;;;;18.00;16.75;;;;;;;;5087666;27;45487;-66
2022/05/01 05:48:42;;;;;;;;;17.25;17.25;;;;;;;;5089412;27;46597;-65
2022/05/01 05:51:08;;;;;;;;;20.00;17.50;;;;;;;;5080385;27;45565;-65
2022/05/01 05:53:33;;;;;;;;;18.25;16.00;;;;;;;;5083791;27;45391;-66
2022/05/01 05:55:59;;;;;;;;;17.00;15.75;;;;;;;;5083742;27;45349;-67
2022/05/01 05:58:24;;;;;;;;;19.00;19.00;;;;;;;;5082831;27;46469;-66
2022/05/01 06:00:49;;;;;;;;;21.50;19.75;;;;;;;;5078472;27;45408;-66
2022/05/01 06:03:14;;;;;;;;;19.75;18.75;;;;;;;;5081282;27;45345;-66
2022/05/01 06:05:40;;;;;;;;;20.50;18.00;;;;;;;;5073087;27;45464;-66
2022/05/01 06:08:05;;;;;;;;;30.50;26.50;;;;;;;;5066966;28;47720;-66
2022/05/01 06:10:30;;;;;;;;;22.25;21.00;;;;;;;;5080830;27;45612;-65
2022/05/01 06:12:55;;;;;;;;;21.25;21.25;;;;;;;;5086538;27;45369;-65
2022/05/01 06:15:21;;;;;;;;;22.25;20.50;;;;;;;;5079485;27;45371;-66
2022/05/01 06:17:46;;;;;;;;;22.75;22.75;;;;;;;;5083104;27;47495;-66
2022/05/01 06:20:11;;;;;;;;;24.00;23.25;;;;;;;;5083192;27;45381;-66
2022/05/01 06:22:36;;;;;;;;;27.00;23.75;;;;;;;;5057585;27;45325;-66
2022/05/01 06:25:02;;;;;;;;;23.75;21.50;;;;;;;;5076684;27;45348;-66
2022/05/01 06:27:27;;;;;;;;;23.00;22.00;;;;;;;;5087115;27;45680;-67
2022/05/01 06:29:52;;;;;;;;;27.50;25.25;;;;;;;;5083115;27;45562;-67
2022/05/01 06:32:19;;;;;;;;;25.75;23.00;;;;;;;;5083366;27;45454;-66
2022/05/01 06:34:45;;;;;;;;;24.75;22.00;;;;;;;;5091531;27;45407;-66
2022/05/01 06:37:10;;;;;;;;;28.50;26.00;;;;;;;;5079966;27;46136;-66
2022/05/01 06:39:35;;;;;;;;;25.75;21.50;;;;;;;;5078102;27;45399;-66
2022/05/01 06:42:01;;;;;;;;;28.50;24.25;;;;;;;;5082884;27;45573;-66
2022/05/01 06:44:26;;;;;;;;;23.00;23.00;;;;;;;;5083128;27;45304;-66
2022/05/01 06:46:51;;;;;;;;;18.25;17.50;;;;;;;;5082842;27;45874;-66
2022/05/01 06:49:16;;;;;;;;;19.75;17.50;;;;;;;;5080976;27;45755;-66
2022/05/01 06:51:41;;;;;;;;;26.75;22.75;;;;;;;;5078444;27;45269;-66
2022/05/01 06:54:08;;;;;;;;;23.00;20.75;;;;;;;;5081654;27;45262;-66
2022/05/01 06:56:34;;;;;;;;;31.25;28.50;;;;;;;;5082692;27;45817;-66
2022/05/01 06:59:00;;;;;;;;;22.75;22.25;;;;;;;;5082710;27;45607;-65
2022/05/01 07:01:25;;;;;;;;;20.50;20.50;;;;;;;;5081791;27;45505;-66
2022/05/01 07:03:50;;;;;;;;;30.75;26.75;;;;;;;;5076377;27;45575;-65
2022/05/01 07:06:16;;;;;;;;;32.75;27.75;;;;;;;;5085350;27;46777;-65
2022/05/01 07:08:41;;;;;;;;;29.75;29.75;;;;;;;;5085700;27;45413;-66
2022/05/01 07:11:06;;;;;;;;;27.25;27.25;;;;;;;;5089715;27;45427;-64
2022/05/01 07:13:32;;;;;;;;;30.75;29.00;;;;;;;;5082767;27;45391;-67
2022/05/01 07:15:57;;;;;;;;;30.75;29.00;;;;;;;;5079011;27;45654;-66
2022/05/01 07:18:23;;;;;;;;;28.00;28.00;;;;;;;;5061301;28;45623;-65
2022/05/01 07:20:48;;;;;;;;;27.25;25.75;;;;;;;;5076771;27;45534;-66
2022/05/01 07:23:13;;;;;;;;;28.25;26.25;;;;;;;;5082599;27;45353;-66
2022/05/01 07:25:38;;;;;;;;;31.25;28.75;;;;;;;;5086130;27;45881;-66
2022/05/01 07:28:04;;;;;;;;;33.25;27.25;;;;;;;;5082367;27;45455;-66
2022/05/01 07:30:29;;;;;;;;;27.25;25.00;;;;;;;;5081886;27;45511;-66
2022/05/01 07:32:54;;;;;;;;;32.00;28.75;;;;;;;;5062446;28;45751;-66
2022/05/01 07:35:19;;;;;;;;;27.50;26.00;;;;;;;;5085159;27;46412;-66
2022/05/01 07:37:45;;;;;;;;;27.00;24.75;;;;;;;;5086127;27;45441;-67
2022/05/01 07:40:11;;;;;;;;;27.75;26.00;;;;;;;;5082441;27;45387;-68
2022/05/01 07:42:36;;;;;;;;;18.25;17.75;;;;;;;;5080327;27;45503;-69
2022/05/01 07:45:02;;;;;;;;;26.25;23.75;;;;;;;;5087358;27;45547;-68
2022/05/01 07:47:27;;;;;;;;;28.75;26.50;;;;;;;;5089447;27;45452;-68
2022/05/01 07:49:52;;;;;;;;;27.25;26.00;;;;;;;;5085564;27;45483;-66
2022/05/01 07:52:18;;;;;;;;;29.25;25.50;;;;;;;;5084038;27;45488;-68
2022/05/01 07:54:43;;;;;;;;;24.75;23.75;;;;;;;;5080668;27;45647;-67
2022/05/01 07:57:08;;;;;;;;;25.50;25.25;;;;;;;;5063785;28;46201;-67
2022/05/01 07:59:34;;;;;;;;;29.50;25.25;;;;;;;;5080005;27;45782;-67
2022/05/01 08:01:59;;;;;;;;;25.25;24.25;;;;;;;;5085339;27;45530;-67
2022/05/01 08:04:28;;;;;;;;;29.00;24.25;;;;;;;;5059078;28;46486;-67
2022/05/01 08:06:53;;;;;;;;;28.25;26.50;;;;;;;;5060522;27;45713;-66
2022/05/01 08:09:18;;;;;;;;;25.00;22.75;;;;;;;;5077791;27;45444;-67
2022/05/01 08:11:44;;;;;;;;;30.25;26.25;;;;;;;;5085546;27;45458;-67
2022/05/01 08:14:12;;;;;;;;;26.00;23.00;;;;;;;;5085069;27;46616;-68
2022/05/01 08:16:37;;;;;;;;;30.50;24.50;;;;;;;;5055987;27;45692;-68
2022/05/01 08:21:46;;;;;;;;;18.75;18.75;;;;;;;;5079476;27;45382;-69
2022/05/01 08:24:11;;;;;;;;;24.75;23.75;;;;;;;;5087272;27;45442;-69
2022/05/01 08:26:37;;;;;;;;;22.00;22.00;;;;;;;;5087465;27;45482;-68
2022/05/01 08:29:02;;;;;;;;;22.75;21.75;;;;;;;;5085223;27;45584;-68
2022/05/01 08:31:27;;;;;;;;;24.00;22.00;;;;;;;;5084593;27;45408;-68
2022/05/01 08:33:54;;;;;;;;;21.75;20.75;;;;;;;;5060093;27;46881;-68
2022/05/01 08:36:20;;;;;;;;;22.25;19.25;;;;;;;;5087488;27;45496;-67
2022/05/01 08:38:45;;;;;;;;;21.25;19.75;;;;;;;;5085981;27;45558;-68
2022/05/01 08:41:10;;;;;;;;;19.50;19.25;;;;;;;;5083862;27;45448;-68
2022/05/01 08:43:36;;;;;;;;;19.00;17.75;;;;;;;;5084836;27;46623;-68
2022/05/01 08:46:07;;;;;;;;;26.50;22.50;;;;;;;;5080459;27;45528;-65
2022/05/01 08:48:50;;;;;;;;;21.50;20.00;;;;;;;;5080373;27;45318;-66
2022/05/01 08:51:16;;;;;;;;;16.25;16.25;;;;;;;;5081836;27;45440;-67
2022/05/01 08:53:42;;;;;;;;;21.25;21.00;;;;;;;;5084570;27;46448;-67
2022/05/01 08:56:07;;;;;;;;;16.00;15.50;;;;;;;;5084517;27;45443;-66
2022/05/01 08:58:33;;;;;;;;;22.75;19.50;;;;;;;;5059181;27;45451;-67
2022/05/01 09:00:59;;;;;;;;;21.25;20.50;;;;;;;;5069741;28;45392;-66
2022/05/01 09:03:24;;;;;;;;;17.00;16.25;;;;;;;;5055699;28;47460;-67
2022/05/01 09:05:50;;;;;;;;;21.00;18.75;;;;;;;;5049440;28;46459;-67
2022/05/01 09:08:15;;;;;;;;;18.75;17.75;;;;;;;;5050641;28;45572;-67
2022/05/01 09:10:42;;;;;;;;;20.75;19.50;;;;;;;;5055520;28;45572;-66
2022/05/01 09:13:08;;;;;;;;;20.25;20.25;;;;;;;;5074091;28;46851;-66
2022/05/01 09:15:35;;;;;;;;;25.00;24.00;;;;;;;;5075052;28;45369;-65
2022/05/01 09:18:02;;;;;;;;;18.75;17.75;;;;;;;;5053569;28;45509;-66
2022/05/01 09:20:27;;;;;;;;;21.50;21.50;;;;;;;;5047560;28;45554;-67
2022/05/01 09:22:53;;;;;;;;;21.25;19.75;;;;;;;;5046980;28;48898;-66
2022/05/01 09:25:22;;;;;;;;;26.25;25.00;;;;;;;;5074170;28;45392;-66
2022/05/01 09:27:49;;;;;;;;;20.75;20.75;;;;;;;;5075010;28;45419;-67
2022/05/01 09:30:22;;;;;;;;;22.00;22.00;;;;;;;;5076104;28;45536;-66
2022/05/01 09:32:47;;;;;;;;;23.25;23.25;;;;;;;;5052251;28;47481;-66
2022/05/01 09:35:26;;;;;;;;;17.25;16.75;;;;;;;;5044981;28;45395;-67
2022/05/01 09:38:08;;;;;;;;;16.00;16.00;;;;;;;;5047145;28;45706;-65
2022/05/01 09:40:33;;;;;;;;;19.00;19.00;;;;;;;;5073673;28;45471;-67
2022/05/01 09:42:59;;;;;;;;;19.50;17.75;;;;;;;;5073138;28;46445;-66
2022/05/01 09:45:29;;;;;;;;;16.75;16.00;;;;;;;;5075457;28;45444;-66
2022/05/01 09:47:54;;;;;;;;;15.00;15.00;;;;;;;;5072124;28;45425;-66
2022/05/01 09:50:37;;;;;;;;;18.50;14.50;;;;;;;;5073239;28;45563;-66
2022/05/01 09:53:03;;;;;;;;;17.25;16.25;;;;;;;;5073407;28;46735;-65
2022/05/01 09:55:29;;;;;;;;;23.00;19.75;;;;;;;;5072177;28;45966;-67
2022/05/01 09:58:03;;;;;;;;;19.25;17.75;;;;;;;;5073820;28;45248;-66
2022/05/01 10:00:39;;;;;;;;;18.00;15.25;;;;;;;;5071708;28;45436;-66
2022/05/01 10:03:21;;;;;;;;;15.50;13.25;;;;;;;;5068774;27;46362;-65
2022/05/01 10:05:47;;;;;;;;;15.50;14.25;;;;;;;;5083226;27;45282;-65
2022/05/01 10:08:12;;;;;;;;;12.25;12.25;;;;;;;;5083591;27;45459;-66
2022/05/01 10:10:39;;;;;;;;;13.50;12.50;;;;;;;;5057719;27;45513;-66
2022/05/01 10:13:05;;;;;;;;;14.00;13.00;;;;;;;;5061197;27;47347;-66
2022/05/01 10:15:31;;;;;;;;;15.25;15.25;;;;;;;;5078649;27;45476;-67
2022/05/01 10:17:56;;;;;;;;;15.25;15.25;;;;;;;;5065202;28;45466;-66
2022/05/01 10:20:22;;;;;;;;;13.25;10.00;;;;;;;;5090254;27;45399;-66
2022/05/01 10:22:47;;;;;;;;;14.00;13.25;;;;;;;;5092308;27;45764;-66
2022/05/01 10:25:16;;;;;;;;;12.00;12.00;;;;;;;;5080409;27;45399;-67
2022/05/01 10:28:02;;;;;;;;;12.50;11.25;;;;;;;;5060286;27;45344;-67
2022/05/01 10:33:26;;;;;;;;;12.50;11.00;;;;;;;;5079031;27;45387;-66
2022/05/01 10:35:53;;;;;;;;;11.50;10.75;;;;;;;;5082549;27;45486;-66
2022/05/01 10:38:21;;;;;;;;;10.25;10.25;;;;;;;;5085647;27;45332;-66
2022/05/01 10:40:50;;;;;;;;;9.50;9.50;;;;;;;;5082615;27;45458;-66
2022/05/01 10:43:24;;;;;;;;;11.50;11.50;;;;;;;;5080225;27;45712;-65
2022/05/01 10:45:50;;;;;;;;;9.00;7.75;;;;;;;;5077681;27;45495;-65
2022/05/01 10:48:27;;;;;;;;;8.75;8.00;;;;;;;;5080414;27;45591;-67
2022/05/01 10:50:53;;;;;;;;;11.50;10.75;;;;;;;;5094338;27;45695;-66
2022/05/01 10:53:19;;;;;;;;;12.00;10.50;;;;;;;;5087547;27;45494;-66
2022/05/01 10:55:52;;;;;;;;;8.50;8.50;;;;;;;;5082462;27;45491;-65
2022/05/01 10:58:21;;;;;;;;;10.75;10.75;;;;;;;;5081090;27;45562;-66
2022/05/01 11:00:47;;;;;;;;;12.00;11.50;;;;;;;;5098832;27;45401;-68
2022/05/01 11:03:32;;;;;;;;;14.50;12.50;;;;;;;;5087451;27;46430;-65
2022/05/01 11:06:04;;;;;;;;;11.25;10.25;;;;;;;;5088596;27;45438;-66
2022/05/01 11:08:31;;;;;;;;;12.00;12.00;;;;;;;;5069924;28;45483;-68
2022/05/01 11:10:58;;;;;;;;;14.00;13.75;;;;;;;;5089369;27;45549;-66
2022/05/01 11:13:38;;;;;;;;;13.75;12.75;;;;;;;;5087733;27;45818;-66
2022/05/01 11:16:04;;;;;;;;;12.25;10.50;;;;;;;;5082355;27;45401;-66
2022/05/01 11:18:33;;;;;;;;;13.75;12.00;;;;;;;;5101613;27;45385;-65
2022/05/01 11:21:17;;;;;;;;;10.25;10.25;;;;;;;;5089138;27;46345;-66
2022/05/01 11:23:43;;;;;;;;;26.75;25.25;;;;;;;;5088823;27;46398;-66
2022/05/01 11:26:13;;;;;;;;;16.00;16.00;;;;;;;;5089015;27;45461;-66
2022/05/01 11:28:42;;;;;;;;;10.75;10.75;;;;;;;;5089037;27;45384;-67
2022/05/01 11:31:27;;;;;;;;;13.75;12.50;;;;;;;;5085127;27;45247;-66
2022/05/01 11:34:11;;;;;;;;;12.75;11.50;;;;;;;;5083513;27;46222;-68
2022/05/01 11:36:54;;;;;;;;;10.50;9.75;;;;;;;;5090289;27;45483;-68
2022/05/01 11:39:22;;;;;;;;;7.25;7.25;;;;;;;;5091952;27;45575;-66
2022/05/01 11:42:00;;;;;;;;;8.75;7.00;;;;;;;;5087317;27;45583;-67
2022/05/01 11:44:26;;;;;;;;;10.75;9.75;;;;;;;;5088712;27;45895;-67
2022/05/01 11:46:55;;;;;;;;;6.75;6.75;;;;;;;;5070364;27;45430;-67
2022/05/01 11:49:21;;;;;;;;;8.75;8.75;;;;;;;;5100642;27;45475;-67
2022/05/01 11:51:47;;;;;;;;;11.50;11.00;;;;;;;;5065940;27;45470;-66
2022/05/01 11:54:14;;;;;;;;;7.75;7.75;;;;;;;;5086926;27;46235;-68
2022/05/01 12:02:25;;;;;;;;;5.00;5.00;;;;;;;;5088656;27;45779;-67
2022/05/01 12:04:51;;;;;;;;;10.00;9.75;;;;;;;;5088508;27;46609;-67
2022/05/01 12:07:20;;;;;;;;;14.25;12.75;;;;;;;;5050309;27;45370;-67
2022/05/01 12:09:46;;;;;;;;;12.75;11.75;;;;;;;;5065979;27;45458;-66
2022/05/01 12:12:16;;;;;;;;;10.25;9.00;;;;;;;;5067509;28;45585;-67
2022/05/01 12:14:42;;;;;;;;;13.00;12.25;;;;;;;;5086414;27;45743;-68
2022/05/01 12:17:08;;;;;;;;;9.25;9.00;;;;;;;;5066825;28;46442;-68
2022/05/01 12:19:37;;;;;;;;;13.00;12.75;;;;;;;;5085357;27;45417;-67
2022/05/01 12:22:03;;;;;;;;;9.00;9.00;;;;;;;;5061649;27;45403;-67
2022/05/01 12:24:28;;;;;;;;;9.50;8.00;;;;;;;;5081130;27;48020;-66
2022/05/01 12:26:54;;;;;;;;;8.75;8.75;;;;;;;;5084263;27;45492;-66
2022/05/01 12:29:20;;;;;;;;;9.25;8.50;;;;;;;;5084788;27;45527;-65
2022/05/01 12:31:55;;;;;;;;;9.00;8.00;;;;;;;;5084872;27;45572;-69
2022/05/01 12:34:27;;;;;;;;;8.75;7.50;;;;;;;;5083468;27;46453;-65
2022/05/01 12:36:53;;;;;;;;;8.25;7.00;;;;;;;;5079998;27;45374;-67
2022/05/01 12:39:20;;;;;;;;;8.25;6.25;;;;;;;;5081675;27;45523;-66
2022/05/01 12:45:02;;;;;;;;;8.00;8.00;;;;;;;;5084600;27;46094;-68
2022/05/01 12:47:34;;;;;;;;;10.00;9.25;;;;;;;;5084680;27;45904;-68
2022/05/01 12:50:00;;;;;;;;;8.50;8.50;;;;;;;;5084923;27;45545;-65
2022/05/01 12:52:38;;;;;;;;;10.00;10.00;;;;;;;;5083835;27;45547;-68
2022/05/01 12:55:07;;;;;;;;;5.75;5.75;;;;;;;;5096418;27;45850;-67
2022/05/01 12:57:33;;;;;;;;;11.25;9.50;;;;;;;;5061724;27;45468;-67
2022/05/01 12:59:59;;;;;;;;;5.25;5.25;;;;;;;;5082755;27;46051;-66
2022/05/01 13:02:24;;;;;;;;;9.00;7.50;;;;;;;;5067032;27;45527;-66
2022/05/01 13:04:59;;;;;;;;;9.50;7.75;;;;;;;;5093148;27;46282;-66
2022/05/01 13:07:31;;;;;;;;;9.75;8.50;;;;;;;;5082751;27;45423;-66
2022/05/01 13:09:56;;;;;;;;;10.25;9.25;;;;;;;;5077336;27;45493;-66
2022/05/01 13:12:32;;;;;;;;;12.75;12.25;;;;;;;;5083902;27;45633;-67
2022/05/01 13:14:58;;;;;;;;;6.75;6.75;;;;;;;;5084044;27;46445;-66
2022/05/01 13:17:27;;;;;;;;;6.25;6.25;;;;;;;;5071543;28;46100;-66
2022/05/01 13:19:53;;;;;;;;;5.75;5.75;;;;;;;;5084047;27;45521;-67
2022/05/01 13:22:18;;;;;;;;;7.00;7.00;;;;;;;;5084745;27;45566;-67
2022/05/01 13:24:44;;;;;;;;;11.00;8.00;;;;;;;;5063159;27;47610;-66
2022/05/01 13:27:11;;;;;;;;;8.75;8.75;;;;;;;;5086993;27;45578;-65
2022/05/01 13:29:39;;;;;;;;;10.50;9.75;;;;;;;;5086647;27;46143;-65
2022/05/01 13:32:06;;;;;;;;;11.75;9.50;;;;;;;;5083082;27;45396;-65
2022/05/01 13:34:32;;;;;;;;;7.25;7.00;;;;;;;;5087931;27;46410;-66
2022/05/01 13:36:59;;;;;;;;;7.50;7.50;;;;;;;;5062436;27;45960;-66
2022/05/01 13:44:44;;;;;;;;;7.00;7.00;;;;;;;;5090955;27;45627;-65
2022/05/01 13:44:54;;;;;;;;;9.75;8.25;;;;;;;;5082949;27;45774;-67
2022/05/01 13:47:20;;;;;;;;;6.75;6.75;;;;;;;;5090958;27;45895;-65
2022/05/01 13:49:45;;;;;;;;;8.25;8.00;;;;;;;;5085863;27;45396;-66
2022/05/01 13:52:11;;;;;;;;;6.00;6.00;;;;;;;;5073468;27;45687;-66
2022/05/01 13:54:36;;;;;;;;;7.50;7.50;;;;;;;;5078640;27;45787;-66
2022/05/01 13:57:02;;;;;;;;;8.75;8.00;;;;;;;;5083052;27;45426;-66
2022/05/01 13:59:28;;;;;;;;;12.00;9.75;;;;;;;;5068077;28;45555;-67
2022/05/01 14:01:56;;;;;;;;;8.25;7.50;;;;;;;;5082298;27;45434;-67
2022/05/01 14:04:21;;;;;;;;;6.50;6.50;;;;;;;;5086326;27;45352;-66
2022/05/01 14:06:47;;;;;;;;;10.25;9.25;;;;;;;;5092379;27;45681;-67
2022/05/01 14:09:17;;;;;;;;;6.50;6.50;;;;;;;;5083289;27;45663;-67
2022/05/01 14:11:42;;;;;;;;;6.25;6.25;;;;;;;;5087803;27;45528;-68
2022/05/01 14:14:07;;;;;;;;;11.25;10.25;;;;;;;;5082373;27;45550;-67
2022/05/01 14:16:33;;;;;;;;;8.00;7.00;;;;;;;;5082908;27;45511;-66
2022/05/01 14:18:58;;;;;;;;;7.25;7.25;;;;;;;;5080774;27;45342;-67
2022/05/01 14:21:25;;;;;;;;;6.00;5.25;;;;;;;;5090611;27;45484;-67
2022/05/01 14:23:50;;;;;;;;;9.25;9.00;;;;;;;;5067579;28;46381;-66
2022/05/01 14:26:15;;;;;;;;;7.50;6.25;;;;;;;;5083958;27;45475;-67
2022/05/01 14:28:42;;;;;;;;;7.75;7.75;;;;;;;;5071051;27;45489;-67
2022/05/01 14:31:18;;;;;;;;;6.00;6.00;;;;;;;;5093163;27;45332;-67
2022/05/01 14:33:46;;;;;;;;;5.00;5.00;;;;;;;;5091643;27;47639;-67
2022/05/01 14:36:12;;;;;;;;;8.75;8.75;;;;;;;;5081069;27;46249;-67
2022/05/01 14:38:45;;;;;;;;;7.75;7.75;;;;;;;;5082223;27;45478;-66
2022/05/01 14:41:12;;;;;;;;;8.00;8.00;;;;;;;;5090286;27;45351;-66
2022/05/01 14:43:39;;;;;;;;;7.25;7.25;;;;;;;;5082169;27;46640;-67
2022/05/01 14:46:07;;;;;;;;;6.75;5.50;;;;;;;;5082965;27;45437;-67
2022/05/01 14:48:44;;;;;;;;;9.25;9.25;;;;;;;;5062741;27;45629;-67
2022/05/01 14:51:09;;;;;;;;;7.00;7.00;;;;;;;;5065258;27;45678;-66
2022/05/01 14:53:36;;;;;;;;;8.00;7.00;;;;;;;;5088840;27;45467;-67
2022/05/01 14:56:02;;;;;;;;;5.25;4.25;;;;;;;;5089489;27;45520;-67